Time;durP1;ratioP1;P1;durP2;ratioP2;P2;SDS_P1;SDS_P2;PMS_P1;PMS_P2;Temp;Humidity;BMP_temperature;BMP_pressure;BME280_temperature;BME280_humidity;BME280_pressure;Samples;Min_cycle;Max_cycle;Signal;HPM_P1;HPM_P2
2023/07/25 00:00:30;;;;;;;7.90;3.15;;;;;;;14.20;90.69;100203.16;4882415;29;20037;-74
2023/07/25 00:02:56;;;;;;;14.05;4.53;;;;;;;14.20;90.97;100203.16;4893195;29;20071;-73
2023/07/25 00:05:22;;;;;;;9.70;3.63;;;;;;;14.18;90.72;100206.16;4882692;29;20037;-73
2023/07/25 00:07:47;;;;;;;7.15;2.90;;;;;;;14.18;91.15;100205.38;4868060;29;20036;-73
2023/07/25 00:10:13;;;;;;;9.98;3.33;;;;;;;14.18;90.07;100202.66;4897625;29;20036;-74
2023/07/25 00:12:39;;;;;;;10.85;3.22;;;;;;;14.14;90.80;100210.56;4901659;29;20036;-72
2023/07/25 00:15:05;;;;;;;12.05;3.72;;;;;;;14.15;90.45;100216.72;4897566;29;20116;-73
2023/07/25 00:17:31;;;;;;;;;;;;;;;14.11;90.98;100221.94;4867627;29;20044;-73
2023/07/25 00:19:57;;;;;;;7.90;3.40;;;;;;;14.06;90.89;100218.56;4883621;29;19915;-73
2023/07/25 00:22:23;;;;;;;6.80;3.28;;;;;;;14.06;91.13;100213.19;4870522;29;20032;-72
2023/07/25 00:24:49;;;;;;;8.70;3.22;;;;;;;14.04;91.21;100210.81;4885225;29;20516;-72
2023/07/25 00:27:14;;;;;;;9.23;3.72;;;;;;;14.00;91.22;100219.78;4883626;29;20036;-73
2023/07/25 00:29:40;;;;;;;9.98;3.08;;;;;;;13.99;91.30;100220.91;4868928;29;20188;-72
2023/07/25 00:32:06;;;;;;;7.13;3.58;;;;;;;13.98;91.56;100225.50;4866942;29;20071;-71
2023/07/25 00:34:32;;;;;;;9.70;3.20;;;;;;;13.93;91.55;100225.59;4869484;29;20045;-72
2023/07/25 00:36:58;;;;;;;;;;;;;;;13.90;91.58;100235.09;4882248;29;20044;-73
2023/07/25 00:39:24;;;;;;;10.10;3.15;;;;;;;13.86;91.38;100238.69;4899118;29;19919;-72
2023/07/25 00:41:49;;;;;;;10.65;3.15;;;;;;;13.82;91.75;100230.44;4882651;29;20037;-72
2023/07/25 00:44:15;;;;;;;4.82;3.38;;;;;;;13.78;91.52;100229.44;4883014;29;20028;-72
2023/07/25 00:46:42;;;;;;;6.22;3.10;;;;;;;13.78;91.68;100232.13;4884738;29;20212;-71
2023/07/25 00:49:08;;;;;;;11.05;3.75;;;;;;;13.76;91.76;100228.94;4897653;29;21101;-72
2023/07/25 00:51:34;;;;;;;5.43;2.65;;;;;;;13.74;91.42;100225.75;4887050;29;20041;-76
2023/07/25 00:54:01;;;;;;;3.97;2.55;;;;;;;13.73;91.40;100234.13;4897451;29;20045;-72
2023/07/25 00:56:27;;;;;;;5.82;2.88;;;;;;;13.73;91.49;100240.31;4881493;29;20043;-73
2023/07/25 00:58:53;;;;;;;;;;;;;;;13.72;92.20;100238.72;4882649;29;20048;-71
2023/07/25 01:01:21;;;;;;;11.93;3.17;;;;;;;13.70;92.25;100235.53;4883247;29;19923;-71
2023/07/25 01:03:47;;;;;;;6.55;3.30;;;;;;;13.72;92.25;100246.78;4886150;29;20048;-73
2023/07/25 01:06:13;;;;;;;;;;;;;;;13.74;92.58;100244.59;4888661;29;20047;-72
2023/07/25 01:08:53;;;;;;;6.32;2.83;;;;;;;13.70;92.16;100245.50;4872879;29;20299;-71
2023/07/25 01:11:19;;;;;;;8.77;3.10;;;;;;;13.70;92.25;100235.53;4882598;29;20047;-72
2023/07/25 01:13:46;;;;;;;9.70;3.45;;;;;;;13.70;92.58;100237.44;4887225;29;20147;-72
2023/07/25 01:16:18;;;;;;;6.82;3.60;;;;;;;13.69;92.20;100247.41;4897315;29;20040;-73
2023/07/25 01:18:45;;;;;;;6.45;3.03;;;;;;;13.67;92.23;100238.81;4888058;29;20093;-73
2023/07/25 01:21:12;;;;;;;11.23;3.47;;;;;;;13.66;92.18;100248.00;4888964;29;20032;-73
2023/07/25 01:23:38;;;;;;;8.30;5.10;;;;;;;13.61;92.67;100246.19;4869980;29;20499;-73
2023/07/25 01:26:03;;;;;;;8.88;3.67;;;;;;;13.59;92.35;100248.41;4886954;29;20498;-72
2023/07/25 01:28:29;;;;;;;8.27;3.60;;;;;;;13.60;92.73;100251.88;4855670;29;20051;-72
2023/07/25 01:30:55;;;;;;;;;;;;;;;13.63;92.45;100256.69;4889323;29;20810;-72
2023/07/25 01:33:21;;;;;;;9.98;3.45;;;;;;;13.61;92.12;100251.56;4902249;29;19947;-74
2023/07/25 01:35:47;;;;;;;7.00;3.67;;;;;;;13.58;92.06;100257.56;4887193;29;20032;-75
2023/07/25 01:38:12;;;;;;;6.82;3.53;;;;;;;13.58;92.08;100267.53;4869780;29;20410;-72
2023/07/25 01:40:41;;;;;;;6.95;3.28;;;;;;;13.56;92.10;100258.97;4887428;29;20044;-72
2023/07/25 01:43:10;;;;;;;8.45;4.43;;;;;;;13.55;92.05;100268.16;4883856;29;20044;-73
2023/07/25 01:45:36;;;;;;;7.28;3.55;;;;;;;13.51;91.97;100267.94;4901928;29;20503;-73
2023/07/25 01:48:02;;;;;;;9.27;2.90;;;;;;;13.49;91.29;100270.16;4883667;29;20697;-74
2023/07/25 01:50:29;;;;;;;7.95;3.05;;;;;;;13.46;91.75;100265.34;4902863;29;20041;-74
2023/07/25 01:52:55;;;;;;;8.73;2.92;;;;;;;13.44;91.77;100272.13;4880784;29;20044;-74
2023/07/25 01:55:21;;;;;;;6.85;3.60;;;;;;;13.44;91.53;100272.13;4873633;29;20045;-74
2023/07/25 01:57:48;;;;;;;7.80;2.75;;;;;;;13.37;91.26;100273.34;4891951;29;20064;-73
2023/07/25 02:00:13;;;;;;;7.03;3.30;;;;;;;13.37;91.62;100284.09;4892642;29;20431;-73
2023/07/25 02:02:39;;;;;;;10.65;3.00;;;;;;;13.37;91.67;100286.78;4897621;29;20201;-74
2023/07/25 02:05:05;;;;;;;9.55;3.30;;;;;;;13.35;92.06;100286.28;4891589;29;20565;-73
2023/07/25 02:07:31;;;;;;;5.18;2.83;;;;;;;13.36;91.85;100285.19;4896471;29;20043;-73
2023/07/25 02:09:57;;;;;;;6.93;2.88;;;;;;;13.35;91.82;100282.81;4880103;29;20037;-72
2023/07/25 02:12:26;;;;;;;;;;;;;;;13.32;91.96;100278.00;4899130;29;20153;-73
2023/07/25 02:14:52;;;;;;;5.85;2.65;;;;;;;13.28;91.69;100275.13;4903477;29;20440;-73
2023/07/25 02:17:20;;;;;;;6.22;3.30;;;;;;;13.25;91.53;100278.41;4892738;29;20118;-73
2023/07/25 02:19:46;;;;;;;4.55;2.92;;;;;;;13.23;91.41;100274.44;4911184;29;20434;-73
2023/07/25 02:22:12;;;;;;;6.25;3.22;;;;;;;13.18;91.15;100277.97;4893050;29;20427;-74
2023/07/25 02:24:39;;;;;;;5.50;2.75;;;;;;;13.16;91.10;100282.88;4892051;29;20131;-74
2023/07/25 02:27:04;;;;;;;8.48;3.10;;;;;;;13.13;91.21;100286.94;4888644;29;20121;-73
2023/07/25 02:29:30;;;;;;;5.47;2.75;;;;;;;13.10;91.22;100284.06;4874837;29;20146;-75
2023/07/25 02:31:55;;;;;;;7.78;3.53;;;;;;;13.05;90.91;100284.94;4880159;29;20060;-73
2023/07/25 02:34:21;;;;;;;7.78;3.38;;;;;;;13.02;91.06;100282.06;4888843;29;20103;-73
2023/07/25 02:36:47;;;;;;;6.97;2.88;;;;;;;13.01;91.05;100291.22;4894252;29;20039;-73
2023/07/25 02:39:12;;;;;;;6.25;3.25;;;;;;;12.98;91.12;100297.16;4879870;29;20036;-73
2023/07/25 02:41:38;;;;;;;7.70;3.10;;;;;;;12.93;90.97;100291.88;4898276;29;20044;-73
2023/07/25 02:44:04;;;;;;;8.43;2.80;;;;;;;12.90;91.30;100295.97;4878173;29;20044;-73
2023/07/25 02:46:30;;;;;;;;;;;;;;;12.83;91.25;100296.34;4895578;29;20032;-73
2023/07/25 02:48:55;;;;;;;7.13;2.95;;;;;;;12.77;91.08;100297.53;4869220;29;19942;-73
2023/07/25 02:51:21;;;;;;;5.20;3.47;;;;;;;12.75;90.84;100294.34;4863544;29;20033;-73
2023/07/25 02:53:47;;;;;;;4.97;2.65;;;;;;;12.71;90.92;100298.69;4887413;29;20517;-74
2023/07/25 02:56:13;;;;;;;7.05;3.05;;;;;;;12.69;91.07;100295.50;4889812;29;20067;-73
2023/07/25 02:58:38;;;;;;;6.10;2.85;;;;;;;12.66;91.21;100295.28;4875225;29;20499;-73
2023/07/25 03:01:04;;;;;;;6.60;2.80;;;;;;;12.64;90.89;100300.97;4862646;29;20064;-72
2023/07/25 03:03:29;;;;;;;6.32;2.75;;;;;;;12.57;90.69;100292.47;4896042;29;20127;-73
2023/07/25 03:05:55;;;;;;;8.65;3.35;;;;;;;12.57;90.88;100293.28;4877619;29;20450;-74
2023/07/25 03:08:21;;;;;;;6.88;3.40;;;;;;;12.54;91.05;100298.44;4893932;29;20040;-73
2023/07/25 03:10:47;;;;;;;8.00;3.10;;;;;;;12.54;91.23;100290.41;4894940;29;20039;-73
2023/07/25 03:13:12;;;;;;;6.03;3.03;;;;;;;12.52;91.00;100292.56;4876596;29;20042;-73
2023/07/25 03:15:38;;;;;;;6.45;3.40;;;;;;;12.50;91.16;100292.06;4875102;29;20040;-73
2023/07/25 03:18:04;;;;;;;8.25;3.08;;;;;;;12.43;91.44;100302.38;4888626;29;20095;-73
2023/07/25 03:20:30;;;;;;;6.68;2.90;;;;;;;12.45;91.46;100305.56;4875440;29;20139;-73
2023/07/25 03:22:55;;;;;;;5.55;2.83;;;;;;;12.39;91.15;100304.03;4891756;29;20045;-73
2023/07/25 03:25:21;;;;;;;6.30;3.40;;;;;;;12.37;91.24;100303.53;4890463;29;20044;-73
2023/07/25 03:27:48;;;;;;;6.85;3.10;;;;;;;12.37;91.84;100303.53;4895605;29;20032;-73
2023/07/25 03:30:14;;;;;;;8.48;3.20;;;;;;;12.36;91.67;100301.94;4903935;29;20123;-73
2023/07/25 03:32:39;;;;;;;8.48;3.25;;;;;;;12.30;92.02;100291.28;4862716;29;20037;-73
2023/07/25 03:35:06;;;;;;;10.25;3.40;;;;;;;12.27;91.75;100294.56;4908711;29;20044;-73
2023/07/25 03:37:31;;;;;;;;;;;;;;;12.27;92.03;100294.56;4874352;29;20156;-74
2023/07/25 03:39:57;;;;;;;5.35;2.80;;;;;;;12.26;91.88;100298.34;4892228;29;19915;-73
2023/07/25 03:42:23;;;;;;;5.55;3.03;;;;;;;12.28;91.90;100298.84;4895083;29;20032;-73
2023/07/25 03:44:48;;;;;;;7.72;2.90;;;;;;;12.28;91.74;100303.41;4913900;29;20042;-74
2023/07/25 03:47:14;;;;;;;5.65;3.42;;;;;;;12.29;91.88;100313.06;4876970;29;20115;-74
2023/07/25 03:49:40;;;;;;;6.75;3.17;;;;;;;12.29;91.99;100319.22;4908120;29;20506;-72
2023/07/25 03:52:06;;;;;;;4.40;2.85;;;;;;;12.32;92.52;100312.47;4878031;29;20528;-75
2023/07/25 03:54:32;;;;;;;6.57;3.20;;;;;;;12.34;92.41;100309.50;4865506;29;20064;-73
2023/07/25 03:56:57;;;;;;;7.90;3.13;;;;;;;12.35;92.44;100309.22;4894331;29;20514;-72
2023/07/25 03:59:23;;;;;;;6.38;3.60;;;;;;;12.36;92.09;100313.50;4891102;29;20036;-73
2023/07/25 04:01:49;;;;;;;6.55;3.20;;;;;;;12.38;92.73;100314.00;4896523;29;20036;-73
2023/07/25 04:04:14;;;;;;;5.15;3.47;;;;;;;12.40;92.60;100319.09;4862703;29;20430;-72
2023/07/25 04:06:40;;;;;;;5.95;3.03;;;;;;;12.42;93.06;100306.16;4894370;29;20090;-73
2023/07/25 04:09:06;;;;;;;8.88;2.90;;;;;;;12.44;93.11;100310.13;4894228;29;20047;-73
2023/07/25 04:11:32;;;;;;;6.75;2.85;;;;;;;12.43;92.49;100307.75;4895100;29;20047;-74
2023/07/25 04:13:57;;;;;;;5.05;2.70;;;;;;;12.44;92.33;100309.34;4889587;29;20505;-73
2023/07/25 04:16:23;;;;;;;8.45;4.00;;;;;;;12.41;92.21;100310.72;4891241;29;20036;-73
2023/07/25 04:18:49;;;;;;;7.82;3.90;;;;;;;12.40;92.46;100308.34;4883071;29;20040;-73
2023/07/25 04:21:14;;;;;;;5.68;3.35;;;;;;;12.41;92.53;100304.56;4877190;29;20804;-73
2023/07/25 04:23:41;;;;;;;5.88;3.20;;;;;;;12.41;92.34;100304.56;4890887;29;20140;-73
2023/07/25 04:26:07;;;;;;;8.70;3.50;;;;;;;12.44;92.97;100309.34;4875141;29;20584;-73
2023/07/25 04:28:32;;;;;;;6.00;3.88;;;;;;;12.45;93.19;100303.66;4889459;29;20048;-72
2023/07/25 04:30:58;;;;;;;8.52;4.15;;;;;;;12.46;93.00;100307.16;4893152;29;20032;-73
2023/07/25 04:33:23;;;;;;;5.85;3.72;;;;;;;12.49;92.71;100301.22;4874252;29;20495;-73
2023/07/25 04:35:49;;;;;;;8.25;3.67;;;;;;;12.51;92.66;100304.41;4861922;29;20412;-72
2023/07/25 04:38:15;;;;;;;;;;;;;;;12.52;93.01;100305.97;4892873;29;20035;-72
2023/07/25 04:40:43;;;;;;;4.07;3.13;;;;;;;12.53;92.86;100299.53;4878719;29;19919;-73
2023/07/25 04:43:08;;;;;;;8.23;3.95;;;;;;;12.54;93.26;100301.94;4894516;29;20120;-72
2023/07/25 04:45:34;;;;;;;8.73;3.88;;;;;;;12.55;93.13;100294.66;4877855;29;20036;-73
2023/07/25 04:48:00;;;;;;;5.88;3.88;;;;;;;12.58;93.89;100304.81;4893494;29;20043;-72
2023/07/25 04:50:26;;;;;;;7.57;3.90;;;;;;;12.61;93.54;100293.50;4893354;29;20044;-73
2023/07/25 04:52:52;;;;;;;7.45;4.07;;;;;;;12.66;93.89;100301.47;4891995;29;20059;-74
2023/07/25 04:55:17;;;;;;;8.07;4.63;;;;;;;12.68;93.68;100299.28;4876760;29;20491;-73
2023/07/25 04:57:43;;;;;;;7.85;3.53;;;;;;;12.72;94.29;100297.59;4881967;29;20088;-73
2023/07/25 05:00:09;;;;;;;6.47;3.80;;;;;;;12.78;94.01;100307.16;4892311;29;20048;-72
2023/07/25 05:02:35;;;;;;;;;;;;;;;12.85;93.99;100309.47;4895340;29;20854;-73
2023/07/25 05:05:01;;;;;;;7.07;3.90;;;;;;;12.87;93.69;100307.31;4893288;29;20436;-73
2023/07/25 05:07:27;;;;;;;9.55;5.18;;;;;;;12.92;94.08;100307.19;4896639;29;20052;-73
2023/07/25 05:09:53;;;;;;;8.10;3.58;;;;;;;13.00;93.52;100311.09;4900729;29;20047;-75
2023/07/25 05:12:19;;;;;;;10.13;4.13;;;;;;;13.07;93.91;100311.50;4891447;29;20040;-73
2023/07/25 05:14:45;;;;;;;10.85;4.25;;;;;;;13.10;93.84;100316.31;4891011;29;20088;-72
2023/07/25 05:17:11;;;;;;;7.28;3.95;;;;;;;13.15;93.47;100307.38;4897553;29;20451;-73
2023/07/25 05:19:37;;;;;;;;;;;;;;;13.21;93.84;100316.94;4879694;29;20037;-73
2023/07/25 05:22:02;;;;;;;7.07;3.17;;;;;;;13.22;92.83;100319.34;4889190;29;19974;-73
2023/07/25 05:24:28;;;;;;;9.82;3.67;;;;;;;13.31;92.87;100317.56;4895510;29;20044;-72
2023/07/25 05:26:54;;;;;;;8.52;3.35;;;;;;;13.38;92.65;100317.97;4896138;29;20109;-75
2023/07/25 05:29:20;;;;;;;10.15;4.38;;;;;;;13.50;92.83;100320.16;4890585;29;20178;-73
2023/07/25 05:31:46;;;;;;;8.93;3.65;;;;;;;13.58;92.29;100321.34;4891061;29;20467;-74
2023/07/25 05:34:11;;;;;;;;;;;;;;;13.62;92.59;100311.59;4858467;29;20043;-72
2023/07/25 05:36:36;;;;;;;6.60;3.28;;;;;;;13.66;92.02;100317.94;4878474;29;19915;-73
2023/07/25 05:39:02;;;;;;;10.65;4.00;;;;;;;13.68;92.65;100326.50;4889912;29;20036;-72
2023/07/25 05:41:28;;;;;;;10.45;4.22;;;;;;;13.68;91.74;100321.13;4890737;29;20044;-73
2023/07/25 05:43:53;;;;;;;8.60;3.45;;;;;;;13.64;91.60;100320.94;4896308;29;20104;-73
2023/07/25 05:46:19;;;;;;;;;;;;;;;13.67;91.20;100319.53;4893789;29;20411;-72
2023/07/25 05:48:44;;;;;;;8.10;2.83;;;;;;;13.71;90.86;100325.94;4894780;29;19915;-73
2023/07/25 05:51:10;;;;;;;7.28;3.50;;;;;;;13.79;91.90;100317.16;4895360;29;20044;-73
2023/07/25 05:53:36;;;;;;;10.35;4.22;;;;;;;13.83;90.57;100317.34;4892684;29;20048;-73
2023/07/25 05:56:02;;;;;;;;;;;;;;;13.87;90.85;100319.13;4880537;29;20444;-70
2023/07/25 05:58:28;;;;;;;10.85;4.00;;;;;;;13.97;91.09;100311.94;4889118;29;20351;-73
2023/07/25 06:00:54;;;;;;;5.95;2.90;;;;;;;14.05;89.79;100319.31;4868910;29;20040;-73
2023/07/25 06:03:20;;;;;;;8.20;3.28;;;;;;;14.13;90.98;100316.69;4894338;29;20040;-73
2023/07/25 06:05:45;;;;;;;10.07;3.28;;;;;;;14.17;90.07;100306.09;4885894;29;20163;-71
2023/07/25 06:08:11;;;;;;;8.98;3.75;;;;;;;14.25;90.53;100308.06;4906560;29;20097;-73
2023/07/25 06:10:38;;;;;;;7.85;3.70;;;;;;;14.27;89.01;100297.78;4883318;29;20111;-73
2023/07/25 06:13:04;;;;;;;10.50;3.45;;;;;;;14.33;91.58;100304.66;4883221;29;20140;-74
2023/07/25 06:15:34;;;;;;;7.88;3.53;;;;;;;14.39;90.49;100295.34;4891432;29;20043;-73
2023/07/25 06:18:04;;;;;;;8.63;2.95;;;;;;;14.52;91.15;100296.44;4894179;29;20060;-73
2023/07/25 06:20:31;;;;;;;10.65;3.65;;;;;;;14.58;90.50;100302.50;4873990;29;20477;-72
2023/07/25 06:22:59;;;;;;;8.60;3.25;;;;;;;14.67;90.23;100292.56;4909622;29;20039;-74
2023/07/25 06:25:24;;;;;;;8.57;3.63;;;;;;;14.74;89.78;100292.91;4890790;29;20040;-73
2023/07/25 06:27:50;;;;;;;8.43;2.90;;;;;;;14.86;89.45;100295.84;4892437;29;20048;-74
2023/07/25 06:30:17;;;;;;;9.57;3.10;;;;;;;14.96;89.61;100300.16;4893882;29;20041;-73
2023/07/25 06:32:43;;;;;;;7.25;3.08;;;;;;;15.06;89.21;100293.72;4889020;29;20037;-73
2023/07/25 06:35:09;;;;;;;5.65;3.13;;;;;;;15.15;85.97;100286.47;4877443;29;20040;-76
2023/07/25 06:37:36;;;;;;;9.43;3.22;;;;;;;15.29;86.38;100293.34;4875494;29;20103;-72
2023/07/25 06:40:02;;;;;;;7.75;3.10;;;;;;;15.40;87.80;100293.88;4909167;29;20046;-74
2023/07/25 06:42:28;;;;;;;8.30;3.53;;;;;;;15.48;86.36;100303.09;4889936;29;20499;-73
2023/07/25 06:44:54;;;;;;;5.68;2.90;;;;;;;15.57;86.50;100310.09;4891643;29;20127;-75
2023/07/25 06:47:20;;;;;;;6.18;3.03;;;;;;;15.64;85.11;100308.88;4866551;29;20040;-73
2023/07/25 06:49:47;;;;;;;8.55;3.17;;;;;;;15.77;85.43;100318.75;4911192;29;20453;-72
2023/07/25 06:52:12;;;;;;;;;;;;;;;15.89;84.84;100315.47;4892400;29;20632;-74
2023/07/25 06:54:39;;;;;;;5.95;2.80;;;;;;;15.99;84.37;100326.78;4893168;29;19922;-73
2023/07/25 06:57:05;;;;;;;6.85;2.75;;;;;;;16.02;85.95;100322.63;4858944;29;20049;-75
2023/07/25 06:59:30;;;;;;;;;;;;;;;16.07;86.30;100327.88;4889331;29;20033;-74
2023/07/25 07:01:56;;;;;;;6.90;2.70;;;;;;;16.09;84.41;100326.44;4874499;29;19935;-74
2023/07/25 07:04:22;;;;;;;6.97;2.40;;;;;;;16.11;80.58;100326.91;4887914;29;20044;-72
2023/07/25 07:06:48;;;;;;;;;;;;;;;16.16;80.31;100327.88;4889935;29;20033;-73
2023/07/25 07:09:14;;;;;;;8.93;2.92;;;;;;;16.26;82.38;100331.09;4894451;29;19923;-73
2023/07/25 07:11:40;;;;;;;;;;;;;;;16.32;80.58;100334.41;4894549;29;20036;-73
2023/07/25 07:14:06;;;;;;;5.82;2.65;;;;;;;16.35;81.46;100350.00;4894288;29;20368;-73
2023/07/25 07:16:31;;;;;;;;;;;;;;;16.34;80.99;100345.72;4890138;29;20557;-74
2023/07/25 07:18:57;;;;;;;6.55;2.60;;;;;;;16.45;82.27;100348.88;4884053;29;20428;-73
2023/07/25 07:21:23;;;;;;;;;;;;;;;16.52;83.12;100351.91;4892125;29;20391;-73
2023/07/25 07:23:49;;;;;;;4.13;1.98;;;;;;;16.58;83.21;100354.13;4877205;29;19972;-74
2023/07/25 07:26:15;;;;;;;;;;;;;;;16.62;79.50;100365.09;4890476;29;20039;-73
2023/07/25 07:28:41;;;;;;;11.45;3.10;;;;;;;16.71;79.22;100357.00;4884786;29;20107;-75
2023/07/25 07:31:09;;;;;;;6.25;2.38;;;;;;;16.82;80.74;100369.09;4890208;29;20040;-73
2023/07/25 07:33:35;;;;;;;9.85;3.33;;;;;;;16.97;79.73;100368.59;4869197;29;20037;-74
2023/07/25 07:36:01;;;;;;;;;;;;;;;17.10;81.21;100372.22;4892056;29;20137;-76
2023/07/25 07:38:27;;;;;;;5.85;2.17;;;;;;;17.30;79.46;100376.16;4894044;29;19959;-74
2023/07/25 07:40:52;;;;;;;7.63;2.15;;;;;;;17.15;74.20;100361.22;4875017;29;20044;-74
2023/07/25 07:43:18;;;;;;;;;;;;;;;17.07;75.06;100370.97;4868993;29;20042;-74
2023/07/25 07:45:44;;;;;;;8.32;3.03;;;;;;;17.07;79.14;100376.38;4893461;29;19948;-75
2023/07/25 07:48:10;;;;;;;;;;;;;;;17.07;80.73;100389.91;4896147;29;20040;-74
2023/07/25 07:50:35;;;;;;;7.07;2.78;;;;;;;17.14;78.92;100381.28;4895162;29;19919;-77
2023/07/25 07:53:01;;;;;;;5.53;2.13;;;;;;;17.11;78.94;100371.91;4893069;29;20391;-81
2023/07/25 07:55:28;;;;;;;7.10;2.53;;;;;;;17.11;79.47;100361.06;4901237;29;20051;-74
2023/07/25 07:57:55;;;;;;;6.28;2.28;;;;;;;17.11;81.26;100358.38;4896203;29;20033;-74
2023/07/25 08:00:21;;;;;;;7.95;2.40;;;;;;;17.27;80.08;100357.84;4890803;29;20048;-76
2023/07/25 08:02:47;;;;;;;6.32;1.90;;;;;;;17.48;77.32;100358.75;4893603;29;20067;-72
2023/07/25 08:05:13;;;;;;;6.88;2.50;;;;;;;17.69;75.67;100369.63;4889549;29;20040;-73
2023/07/25 08:07:39;;;;;;;9.15;2.90;;;;;;;17.66;74.44;100371.06;4891074;29;20096;-73
2023/07/25 08:10:06;;;;;;;8.30;2.28;;;;;;;17.53;76.38;100363.16;4888859;29;20039;-73
2023/07/25 08:12:33;;;;;;;7.28;2.20;;;;;;;17.40;75.22;100359.53;4892152;29;20028;-74
2023/07/25 08:14:58;;;;;;;7.93;2.45;;;;;;;17.35;77.56;100365.16;4871375;29;20067;-74
2023/07/25 08:17:24;;;;;;;;;;;;;;;17.28;77.54;100372.97;4897562;29;20691;-72
2023/07/25 08:19:50;;;;;;;4.32;2.15;;;;;;;17.28;78.59;100381.88;4877949;29;19923;-74
2023/07/25 08:22:17;;;;;;;6.53;2.17;;;;;;;17.14;76.89;100382.09;4892188;29;20120;-76
2023/07/25 08:24:43;;;;;;;6.10;2.45;;;;;;;17.12;79.42;100384.31;4909940;29;20036;-74
2023/07/25 08:27:08;;;;;;;;;;;;;;;16.97;78.06;100386.72;4892268;29;20033;-74
2023/07/25 08:29:42;;;;;;;6.20;2.67;;;;;;;16.82;76.56;100380.69;4861811;29;20464;-76
2023/07/25 08:32:11;;;;;;;8.10;2.40;;;;;;;16.82;76.17;100382.63;4894218;29;20078;-77
2023/07/25 08:34:38;;;;;;;6.57;2.55;;;;;;;16.82;76.19;100374.50;4880973;29;20040;-78
2023/07/25 08:37:04;;;;;;;6.72;2.30;;;;;;;16.84;77.92;100373.06;4897429;29;20033;-72
2023/07/25 08:39:29;;;;;;;6.65;2.30;;;;;;;16.91;79.43;100367.16;4879638;29;20037;-75
2023/07/25 08:41:57;;;;;;;;;;;;;;;16.91;79.58;100372.56;4889649;29;20100;-73
2023/07/25 08:44:24;;;;;;;6.90;2.08;;;;;;;16.96;78.97;100368.91;4888425;29;20445;-73
2023/07/25 08:46:52;;;;;;;9.32;2.30;;;;;;;16.96;77.46;100358.88;4895941;29;20550;-77
2023/07/25 08:49:25;;;;;;;5.28;2.10;;;;;;;17.04;77.61;100360.78;4877316;29;20108;-74
2023/07/25 08:51:54;;;;;;;8.20;2.30;;;;;;;17.12;77.38;100356.44;4896942;29;20041;-75
2023/07/25 08:54:35;;;;;;;6.13;2.55;;;;;;;17.24;76.43;100351.16;4889852;29;20039;-74
2023/07/25 08:57:03;;;;;;;7.65;2.00;;;;;;;17.44;75.98;100353.16;4861558;29;20040;-75
2023/07/25 08:59:30;;;;;;;8.70;2.17;;;;;;;17.62;75.59;100364.72;4908603;29;20044;-73
2023/07/25 09:01:55;;;;;;;6.38;2.00;;;;;;;17.66;74.27;100365.66;4893948;29;20040;-74
2023/07/25 09:04:23;;;;;;;;;;;;;;;17.73;72.52;100355.13;4880912;29;20044;-74
2023/07/25 09:06:48;;;;;;;7.68;2.67;;;;;;;17.85;74.52;100357.13;4894444;29;19926;-74
2023/07/25 09:09:14;;;;;;;;;;;;;;;17.85;71.83;100356.34;4881953;29;20052;-73
2023/07/25 09:11:40;;;;;;;8.95;2.40;;;;;;;17.97;73.04;100353.72;4875821;29;19919;-75
2023/07/25 09:14:06;;;;;;;;;;;;;;;17.90;69.78;100358.88;4891042;29;20044;-76
2023/07/25 09:16:32;;;;;;;4.47;1.85;;;;;;;17.92;73.15;100356.63;4895411;29;19922;-74
2023/07/25 09:18:58;;;;;;;6.78;2.03;;;;;;;17.96;72.80;100357.56;4866961;29;20506;-73
2023/07/25 09:21:24;;;;;;;;;;;;;;;18.03;74.80;100360.56;4909043;29;20104;-74
2023/07/25 09:23:52;;;;;;;5.32;2.20;;;;;;;18.04;75.08;100369.47;4889268;29;20315;-75
2023/07/25 09:26:21;;;;;;;6.18;2.05;;;;;;;18.06;71.40;100365.28;4890017;29;20040;-74
2023/07/25 09:28:51;;;;;;;6.22;2.33;;;;;;;17.97;69.92;100370.00;4894131;29;20032;-75
2023/07/25 09:31:19;;;;;;;8.23;2.40;;;;;;;17.84;68.60;100376.44;4897310;29;20037;-76
2023/07/25 09:33:49;;;;;;;5.43;2.25;;;;;;;17.73;68.59;100379.50;4904998;29;20045;-75
2023/07/25 09:36:18;;;;;;;4.50;1.77;;;;;;;17.30;71.50;100389.69;4896381;29;20040;-74
2023/07/25 09:38:54;;;;;;;3.85;1.85;;;;;;;16.93;75.36;100397.38;4880473;29;20028;-76
2023/07/25 09:41:22;;;;;;;7.72;2.10;;;;;;;16.74;77.21;100407.75;4893195;29;20088;-76
2023/07/25 09:43:48;;;;;;;6.47;2.10;;;;;;;16.51;77.79;100402.47;4900455;29;20041;-75
2023/07/25 09:46:14;;;;;;;6.43;2.40;;;;;;;16.41;79.02;100402.78;4891826;29;20051;-74
2023/07/25 09:48:44;;;;;;;;;;;;;;;16.35;81.65;100410.25;4893119;29;20032;-74
2023/07/25 09:51:14;;;;;;;3.95;1.70;;;;;;;16.36;81.36;100409.13;4896445;29;19927;-74
2023/07/25 09:53:45;;;;;;;6.35;2.33;;;;;;;16.32;81.84;100410.88;4891370;29;20039;-74
2023/07/25 09:56:12;;;;;;;5.72;2.60;;;;;;;16.33;81.87;100395.47;4891573;29;20466;-75
2023/07/25 09:58:38;;;;;;;;;;;;;;;16.38;82.72;100376.38;4913092;29;20039;-73
2023/07/25 10:01:04;;;;;;;6.13;2.53;;;;;;;16.38;82.71;100381.78;4891788;29;20395;-74
2023/07/25 10:03:30;;;;;;;3.63;2.03;;;;;;;16.40;83.66;100381.47;4878535;29;20147;-73
2023/07/25 10:05:58;;;;;;;;;;;;;;;16.40;80.57;100379.56;4915486;29;20070;-74
2023/07/25 10:08:27;;;;;;;6.85;1.95;;;;;;;16.43;82.02;100378.94;4880163;29;19967;-73
2023/07/25 10:10:56;;;;;;;3.38;1.80;;;;;;;16.41;80.61;100378.47;4899900;29;20155;-75
2023/07/25 10:13:23;;;;;;;4.03;1.50;;;;;;;16.41;82.54;100378.47;4890757;29;20037;-74
2023/07/25 10:15:51;;;;;;;4.38;2.25;;;;;;;16.44;81.17;100372.41;4895326;29;20135;-74
2023/07/25 10:18:26;;;;;;;4.57;1.20;;;;;;;16.46;80.23;100385.59;4890356;29;20036;-73
2023/07/25 10:20:53;;;;;;;4.25;1.92;;;;;;;16.51;80.96;100380.84;4873433;29;20049;-73
2023/07/25 10:23:19;;;;;;;3.40;1.50;;;;;;;16.56;79.67;100383.38;4895388;29;20505;-76
2023/07/25 10:25:46;;;;;;;4.50;1.83;;;;;;;16.62;75.28;100382.13;4896947;29;20525;-75
2023/07/25 10:28:12;;;;;;;6.68;2.03;;;;;;;16.64;75.46;100374.47;4894951;29;20131;-73
2023/07/25 10:30:45;;;;;;;6.50;1.70;;;;;;;16.70;75.90;100377.06;4879459;29;20058;-73
2023/07/25 10:33:16;;;;;;;9.38;1.52;;;;;;;16.77;76.50;100383.56;4913945;29;21113;-75
2023/07/25 10:35:55;;;;;;;6.28;2.00;;;;;;;16.86;73.92;100380.84;4894235;29;20044;-74
2023/07/25 10:38:39;;;;;;;7.45;2.28;;;;;;;16.99;74.82;100390.69;4890673;29;20040;-74
2023/07/25 10:41:16;;;;;;;4.72;1.95;;;;;;;17.09;75.67;100384.16;4889474;29;20135;-72
2023/07/25 10:43:55;;;;;;;4.10;2.33;;;;;;;17.13;75.15;100375.06;4895152;29;20059;-74
2023/07/25 10:46:25;;;;;;;4.22;2.03;;;;;;;17.29;74.76;100369.16;4906113;29;20463;-74
2023/07/25 10:49:15;;;;;;;4.22;2.00;;;;;;;17.64;74.64;100367.91;4907126;29;20526;-73
2023/07/25 10:52:02;;;;;;;6.15;2.03;;;;;;;17.91;75.80;100376.72;4888113;29;20477;-74
2023/07/25 10:54:29;;;;;;;6.60;1.90;;;;;;;18.17;70.82;100373.84;4888415;29;20113;-75
2023/07/25 10:57:16;;;;;;;4.60;2.33;;;;;;;18.41;67.38;100387.53;4892508;29;20060;-73
2023/07/25 10:59:59;;;;;;;4.43;1.90;;;;;;;18.56;73.45;100383.44;4893841;29;20048;-75
2023/07/25 11:02:33;;;;;;;4.60;2.00;;;;;;;18.77;70.44;100381.53;4864068;29;20098;-74
2023/07/25 11:05:12;;;;;;;5.22;2.00;;;;;;;18.54;68.77;100394.59;4888241;29;20190;-74
2023/07/25 11:07:58;;;;;;;5.13;1.60;;;;;;;18.36;68.55;100405.94;4872943;29;20053;-74
2023/07/25 11:10:25;;;;;;;3.92;1.52;;;;;;;18.14;71.33;100412.44;4880135;29;20415;-73
2023/07/25 11:12:53;;;;;;;5.82;1.60;;;;;;;18.06;72.45;100416.78;4894121;29;20064;-73
2023/07/25 11:15:18;;;;;;;5.03;1.60;;;;;;;18.02;73.13;100415.88;4892349;29;20522;-73
2023/07/25 11:17:44;;;;;;;;;;;;;;;17.97;71.64;100416.03;4891412;29;20028;-75
2023/07/25 11:20:24;;;;;;;3.55;1.30;;;;;;;17.80;72.59;100414.19;4853674;29;19923;-76
2023/07/25 11:22:52;;;;;;;3.63;1.67;;;;;;;17.64;73.19;100411.22;4875437;29;20070;-74
2023/07/25 11:25:18;;;;;;;4.10;1.83;;;;;;;17.39;71.85;100415.59;4875413;29;20048;-75
2023/07/25 11:27:45;;;;;;;2.40;1.42;;;;;;;17.38;73.51;100413.22;4891745;29;20123;-74
2023/07/25 11:30:13;;;;;;;2.83;1.10;;;;;;;17.31;73.87;100404.81;4889889;29;20041;-74